createdAt,value
2022-11-29T00:01:34.116Z,38.47
2022-11-29T00:04:01.226Z,25.67
2022-11-29T00:06:30.980Z,33.40
2022-11-29T00:08:59.937Z,32.25
2022-11-29T00:11:48.813Z,40.58
2022-11-29T00:14:18.296Z,51.47
2022-11-29T00:16:45.564Z,62.78
2022-11-29T00:19:13.331Z,48.90
2022-11-29T00:21:39.872Z,62.08
2022-11-29T00:24:06.840Z,145.02
2022-11-29T00:26:33.571Z,47.83
2022-11-29T00:29:00.118Z,50.05
2022-11-29T00:31:32.161Z,33.65
2022-11-29T00:34:01.126Z,46.67
2022-11-29T00:36:28.148Z,70.75
2022-11-29T00:38:54.706Z,53.28
2022-11-29T00:41:21.463Z,32.03
2022-11-29T00:43:48.415Z,23.83
2022-11-29T00:46:15.454Z,31.88
2022-11-29T00:48:42.118Z,98.72
2022-11-29T00:51:08.916Z,36.28
2022-11-29T00:53:36.715Z,32.47
2022-11-29T00:56:04.378Z,45.00
2022-11-29T00:58:31.153Z,42.40
2022-11-29T01:00:57.985Z,40.78
2022-11-29T01:03:24.832Z,50.28
2022-11-29T01:05:51.899Z,52.35
2022-11-29T01:08:19.308Z,43.90
2022-11-29T01:10:45.942Z,41.75
2022-11-29T01:13:14.151Z,35.10
2022-11-29T01:15:41.799Z,43.67
2022-11-29T01:18:08.360Z,55.78
2022-11-29T01:20:34.911Z,37.80
2022-11-29T01:23:01.509Z,81.50
2022-11-29T01:25:28.055Z,126.20
2022-11-29T01:27:54.540Z,57.80
2022-11-29T01:30:21.482Z,72.25
2022-11-29T01:32:48.086Z,93.63
2022-11-29T01:35:14.560Z,79.57
2022-11-29T01:37:41.145Z,64.43
2022-11-29T01:40:08.210Z,95.80
2022-11-29T01:42:34.698Z,62.55
2022-11-29T01:45:08.112Z,88.47
2022-11-29T01:47:41.471Z,81.72
2022-11-29T01:50:08.572Z,128.45
2022-11-29T01:52:35.098Z,123.40
2022-11-29T01:55:05.658Z,103.25
2022-11-29T01:57:35.323Z,111.00
2022-11-29T02:00:10.175Z,104.10
2022-11-29T02:02:52.331Z,109.93
2022-11-29T02:05:20.562Z,126.95
2022-11-29T02:07:51.412Z,126.45
2022-11-29T02:10:20.469Z,90.32
2022-11-29T02:12:56.121Z,122.65
2022-11-29T02:15:34.747Z,126.07
2022-11-29T02:18:07.336Z,146.23
2022-11-29T02:21:07.901Z,98.45
2022-11-29T02:23:53.085Z,64.00
2022-11-29T02:26:58.026Z,100.25
2022-11-29T02:29:46.680Z,64.85
2022-11-29T02:32:54.207Z,106.40
2022-11-29T02:35:39.566Z,79.35
2022-11-29T02:38:45.531Z,78.20
2022-11-29T02:42:17.027Z,43.80
2022-11-29T02:45:05.624Z,61.08
2022-11-29T02:48:21.412Z,77.18
2022-11-29T02:50:56.829Z,33.47
2022-11-29T02:53:35.514Z,61.28
2022-11-29T02:56:21.056Z,57.55
2022-11-29T02:59:16.703Z,70.20
2022-11-29T03:01:59.023Z,53.20
2022-11-29T03:04:33.296Z,65.28
2022-11-29T03:07:37.394Z,53.28
2022-11-29T03:10:17.319Z,68.43
2022-11-29T03:12:50.210Z,56.10
2022-11-29T03:15:31.213Z,153.25
2022-11-29T03:18:17.298Z,80.20
2022-11-29T03:20:55.850Z,79.60
2022-11-29T03:23:28.148Z,90.35
2022-11-29T03:26:07.748Z,56.65
2022-11-29T03:29:07.379Z,44.30
2022-11-29T03:31:53.010Z,64.13
2022-11-29T03:34:32.864Z,56.60
2022-11-29T03:37:11.179Z,40.70
2022-11-29T03:39:57.918Z,73.03
2022-11-29T03:42:32.848Z,69.18
2022-11-29T03:45:14.537Z,99.13
2022-11-29T03:47:52.412Z,100.65
2022-11-29T03:50:38.974Z,96.68
2022-11-29T03:53:08.873Z,74.80
2022-11-29T03:55:56.629Z,130.93
2022-11-29T03:58:47.805Z,91.63
2022-11-29T04:01:35.484Z,109.00
2022-11-29T04:04:17.048Z,73.72
2022-11-29T04:06:46.322Z,72.95
2022-11-29T04:09:18.794Z,57.55
2022-11-29T04:11:59.057Z,48.20
2022-11-29T04:14:56.371Z,79.97
2022-11-29T04:17:25.613Z,53.00
2022-11-29T04:20:37.831Z,93.78
2022-11-29T04:23:30.468Z,46.78
2022-11-29T04:26:34.648Z,43.83
2022-11-29T04:29:10.587Z,53.58
2022-11-29T04:32:11.231Z,83.78
2022-11-29T04:34:49.940Z,41.47
2022-11-29T04:37:38.139Z,52.58
2022-11-29T04:40:53.293Z,63.95
2022-11-29T04:43:25.852Z,63.95
2022-11-29T04:46:01.248Z,50.13
2022-11-29T04:48:55.640Z,41.95
2022-11-29T04:51:36.994Z,37.70
2022-11-29T04:54:16.361Z,35.05
2022-11-29T04:56:50.788Z,57.42
2022-11-29T04:59:32.636Z,42.70
2022-11-29T05:02:23.839Z,49.75
2022-11-29T05:05:24.881Z,80.77
2022-11-29T05:08:25.350Z,35.35
2022-11-29T05:11:29.145Z,61.67
2022-11-29T05:14:17.666Z,52.97
2022-11-29T05:17:08.694Z,43.60
2022-11-29T05:20:01.491Z,46.13
2022-11-29T05:22:34.279Z,57.08
2022-11-29T05:25:23.053Z,68.15
2022-11-29T05:28:10.591Z,89.72
2022-11-29T05:31:08.081Z,82.43
2022-11-29T05:34:05.402Z,90.88
2022-11-29T05:36:48.497Z,72.35
2022-11-29T05:39:17.749Z,52.40
2022-11-29T05:42:02.197Z,77.68
2022-11-29T05:44:28.649Z,94.60
2022-11-29T05:46:56.851Z,81.60
2022-11-29T05:49:29.094Z,77.97
2022-11-29T05:52:03.658Z,72.20
2022-11-29T05:54:33.684Z,107.13
2022-11-29T05:57:25.107Z,87.43
2022-11-29T05:59:53.596Z,147.27
2022-11-29T06:02:26.439Z,65.53
2022-11-29T06:05:09.624Z,54.10
2022-11-29T06:07:58.658Z,70.78
2022-11-29T06:10:29.869Z,58.13
2022-11-29T06:13:38.356Z,57.60
2022-11-29T06:16:39.929Z,111.10
2022-11-29T06:19:18.306Z,84.55
2022-11-29T06:22:09.503Z,154.00
2022-11-29T06:24:50.568Z,132.18
2022-11-29T06:27:42.912Z,116.07
2022-11-29T06:30:20.804Z,141.15
2022-11-29T06:33:14.032Z,130.52
2022-11-29T06:35:46.529Z,102.63
2022-11-29T06:38:27.175Z,181.02
2022-11-29T06:41:00.137Z,172.45
2022-11-29T06:43:28.775Z,114.60
2022-11-29T06:46:11.301Z,158.30
2022-11-29T06:49:01.956Z,118.28
2022-11-29T06:51:34.986Z,77.40
2022-11-29T06:54:24.081Z,92.25
2022-11-29T06:57:26.537Z,78.28
2022-11-29T07:00:08.365Z,132.13
2022-11-29T07:02:44.528Z,137.75
2022-11-29T07:05:23.469Z,172.82
2022-11-29T07:07:54.124Z,178.68
2022-11-29T07:10:21.392Z,147.48
2022-11-29T07:12:49.675Z,149.55
2022-11-29T07:15:21.816Z,163.25
2022-11-29T07:18:24.573Z,114.57
2022-11-29T07:21:25.484Z,142.43
2022-11-29T07:24:13.786Z,123.47
2022-11-29T07:27:02.416Z,134.07
2022-11-29T07:29:34.753Z,143.30
2022-11-29T07:32:15.276Z,148.88
2022-11-29T07:35:06.683Z,104.13
2022-11-29T07:37:53.427Z,91.43
2022-11-29T07:40:34.427Z,97.63
2022-11-29T07:43:21.738Z,106.30
2022-11-29T07:45:48.664Z,96.47
2022-11-29T07:48:16.594Z,118.43
2022-11-29T07:50:43.909Z,122.20
2022-11-29T07:53:17.844Z,136.48
2022-11-29T07:55:45.050Z,108.03
2022-11-29T07:58:15.942Z,76.88
2022-11-29T08:00:43.358Z,88.93
2022-11-29T08:03:11.030Z,80.97
2022-11-29T08:05:38.582Z,105.30
2022-11-29T08:08:05.701Z,103.63
2022-11-29T08:10:32.493Z,56.92
2022-11-29T08:12:59.026Z,93.97
2022-11-29T08:15:25.972Z,69.20
2022-11-29T08:17:53.336Z,57.85
2022-11-29T08:20:20.031Z,70.53
2022-11-29T08:22:54.683Z,82.50
2022-11-29T08:25:21.297Z,82.75
2022-11-29T08:27:47.812Z,55.40
2022-11-29T08:30:14.494Z,70.93
2022-11-29T08:32:41.028Z,63.50
2022-11-29T08:35:07.854Z,56.75
2022-11-29T08:37:34.556Z,72.68
2022-11-29T08:40:01.128Z,50.88
2022-11-29T08:42:27.640Z,59.83
2022-11-29T08:44:54.207Z,56.88
2022-11-29T08:47:38.871Z,65.45
2022-11-29T08:50:12.195Z,53.30
2022-11-29T08:53:00.153Z,43.42
2022-11-29T08:55:30.687Z,54.40
2022-11-29T08:58:06.130Z,41.05
2022-11-29T09:00:34.207Z,52.08
2022-11-29T09:03:22.183Z,46.15
2022-11-29T09:05:48.859Z,57.15
2022-11-29T09:08:15.714Z,52.25
2022-11-29T09:10:42.828Z,58.42
2022-11-29T09:13:10.543Z,38.38
2022-11-29T09:15:38.290Z,33.10
2022-11-29T09:18:05.858Z,33.53
2022-11-29T09:20:33.831Z,30.45
2022-11-29T09:23:01.359Z,34.00
2022-11-29T09:25:28.842Z,34.35
2022-11-29T09:27:58.269Z,34.30
2022-11-29T09:30:25.062Z,33.03
2022-11-29T09:32:51.629Z,38.78
2022-11-29T09:35:18.306Z,40.88
2022-11-29T09:37:44.799Z,41.90
2022-11-29T09:40:21.887Z,44.22
2022-11-29T09:42:58.245Z,40.75
2022-11-29T09:45:31.692Z,21.40
2022-11-29T09:48:01.175Z,34.53
2022-11-29T09:50:44.851Z,44.78
2022-11-29T09:53:36.084Z,46.60
2022-11-29T09:56:27.289Z,44.50
2022-11-29T09:59:00.351Z,49.13
2022-11-29T10:01:31.889Z,53.92
2022-11-29T10:04:02.983Z,90.78
2022-11-29T10:06:36.821Z,50.08
2022-11-29T10:09:16.047Z,49.50
2022-11-29T10:12:17.302Z,58.30
2022-11-29T10:14:49.476Z,68.60
2022-11-29T10:17:39.411Z,81.18
2022-11-29T10:20:42.410Z,64.93
2022-11-29T10:23:36.755Z,73.20
2022-11-29T10:26:08.062Z,83.97
2022-11-29T10:28:36.857Z,106.20
2022-11-29T10:31:32.511Z,47.00
2022-11-29T10:34:01.683Z,53.85
2022-11-29T10:36:44.648Z,58.70
2022-11-29T10:39:19.770Z,99.00
2022-11-29T10:41:49.777Z,54.58
2022-11-29T10:44:16.295Z,37.45
2022-11-29T10:46:43.025Z,42.08
2022-11-29T10:49:17.275Z,47.10
2022-11-29T10:51:44.083Z,37.08
2022-11-29T10:54:32.614Z,29.80
2022-11-29T10:57:00.974Z,24.75
2022-11-29T10:59:29.678Z,31.33
2022-11-29T11:01:57.835Z,28.38
2022-11-29T11:04:27.027Z,32.42
2022-11-29T11:06:57.180Z,36.35
2022-11-29T11:09:35.715Z,36.42
2022-11-29T11:12:17.014Z,38.83
2022-11-29T11:14:45.228Z,44.25
2022-11-29T11:17:30.207Z,44.08
2022-11-29T11:20:05.861Z,45.42
2022-11-29T11:22:33.841Z,50.10
2022-11-29T11:25:06.297Z,43.90
2022-11-29T11:27:41.566Z,45.03
2022-11-29T11:30:22.329Z,47.85
2022-11-29T11:33:13.459Z,39.35
2022-11-29T11:35:40.045Z,30.63
2022-11-29T11:38:16.534Z,35.40
2022-11-29T11:40:43.641Z,38.92
2022-11-29T11:43:20.639Z,35.53
2022-11-29T11:45:54.622Z,33.45
2022-11-29T11:48:22.057Z,26.73
2022-11-29T11:50:54.004Z,30.90
2022-11-29T11:53:36.789Z,33.00
2022-11-29T11:56:07.766Z,30.55
2022-11-29T11:58:43.324Z,31.42
2022-11-29T12:01:12.789Z,30.98
2022-11-29T12:03:49.917Z,31.48
2022-11-29T12:06:36.067Z,26.97
2022-11-29T12:09:11.441Z,31.38
2022-11-29T12:11:50.209Z,23.50
2022-11-29T12:14:52.077Z,24.67
2022-11-29T12:17:46.414Z,24.67
2022-11-29T12:20:17.792Z,24.87
2022-11-29T12:22:53.319Z,23.67
2022-11-29T12:25:26.990Z,26.20
2022-11-29T12:27:53.597Z,26.17
2022-11-29T12:30:20.380Z,24.02
2022-11-29T12:33:03.908Z,25.43
2022-11-29T12:35:35.061Z,24.55
2022-11-29T12:38:34.990Z,22.77
2022-11-29T12:41:34.713Z,21.77
2022-11-29T12:44:33.272Z,25.38
2022-11-29T12:50:16.809Z,27.95
2022-11-29T12:53:06.245Z,24.05
2022-11-29T12:56:20.465Z,29.50
2022-11-29T12:59:08.425Z,29.65
2022-11-29T13:02:15.129Z,27.93
2022-11-29T13:04:59.373Z,28.08
2022-11-29T13:07:57.339Z,25.40
2022-11-29T13:10:48.869Z,24.70
2022-11-29T13:13:42.406Z,24.80
2022-11-29T13:16:25.089Z,20.37
2022-11-29T13:19:08.523Z,22.60
2022-11-29T13:21:53.141Z,21.77
2022-11-29T13:24:42.883Z,20.63
2022-11-29T13:27:15.919Z,25.67
2022-11-29T13:29:42.619Z,20.00
2022-11-29T13:32:30.347Z,22.42
2022-11-29T13:35:03.211Z,17.90
2022-11-29T13:37:50.621Z,22.65
2022-11-29T13:40:37.654Z,20.27
2022-11-29T13:43:22.688Z,19.40
2022-11-29T13:46:11.023Z,24.35
2022-11-29T13:48:49.433Z,23.07
2022-11-29T13:51:33.350Z,21.88
2022-11-29T13:54:03.536Z,19.08
2022-11-29T13:56:36.523Z,26.17
2022-11-29T13:59:08.398Z,19.48
2022-11-29T14:01:46.746Z,20.67
2022-11-29T14:04:28.618Z,21.80
2022-11-29T14:07:15.377Z,21.60
2022-11-29T14:09:59.169Z,21.67
2022-11-29T14:12:48.129Z,22.42
2022-11-29T14:15:32.691Z,26.57
2022-11-29T14:18:07.312Z,26.52
2022-11-29T14:20:39.702Z,33.47
2022-11-29T14:23:07.470Z,31.95
2022-11-29T14:25:51.108Z,31.20
2022-11-29T14:28:18.363Z,34.83
2022-11-29T14:30:44.898Z,30.05
2022-11-29T14:33:33.188Z,34.45
2022-11-29T14:36:14.972Z,35.15
2022-11-29T14:38:53.666Z,35.38
2022-11-29T14:41:37.019Z,29.50
2022-11-29T14:44:21.834Z,26.70
2022-11-29T14:46:59.338Z,26.48
2022-11-29T14:49:27.610Z,24.20
2022-11-29T14:52:15.666Z,29.23
2022-11-29T14:55:17.502Z,27.13
2022-11-29T14:57:49.879Z,25.80
2022-11-29T15:00:24.335Z,24.30
2022-11-29T15:03:09.204Z,30.20
2022-11-29T15:05:40.037Z,29.13
2022-11-29T15:08:06.524Z,27.30
2022-11-29T15:10:37.444Z,27.90
2022-11-29T15:13:04.647Z,29.60
2022-11-29T15:16:16.267Z,31.08
2022-11-29T15:19:04.036Z,26.27
2022-11-29T15:21:39.466Z,26.20
2022-11-29T15:24:15.177Z,32.08
2022-11-29T15:26:59.762Z,31.83
2022-11-29T15:29:27.953Z,39.17
2022-11-29T15:32:06.052Z,34.72
2022-11-29T15:34:38.117Z,38.47
2022-11-29T15:37:04.887Z,49.95
2022-11-29T15:39:34.834Z,35.40
2022-11-29T15:42:10.130Z,58.40
2022-11-29T15:44:36.765Z,37.97
2022-11-29T15:47:23.048Z,31.07
2022-11-29T15:49:50.928Z,25.05
2022-11-29T15:52:36.437Z,42.17
2022-11-29T15:55:10.314Z,45.03
2022-11-29T15:57:42.893Z,54.35
2022-11-29T16:00:17.457Z,58.03
2022-11-29T16:03:05.124Z,58.17
2022-11-29T16:05:37.732Z,53.30
2022-11-29T16:08:18.817Z,62.22
2022-11-29T16:10:50.359Z,32.28
2022-11-29T16:13:32.537Z,27.63
2022-11-29T16:16:07.517Z,26.42
2022-11-29T16:18:34.366Z,30.15
2022-11-29T16:21:06.008Z,34.05
2022-11-29T16:23:36.980Z,37.17
2022-11-29T16:26:12.553Z,32.90
2022-11-29T16:28:44.744Z,82.18
2022-11-29T16:31:31.691Z,44.17
2022-11-29T16:34:07.285Z,46.95
2022-11-29T16:36:33.866Z,35.35
2022-11-29T16:39:16.950Z,55.03
2022-11-29T16:41:43.971Z,54.25
2022-11-29T16:44:39.753Z,51.25
2022-11-29T16:47:18.917Z,50.00
2022-11-29T16:49:45.775Z,30.90
2022-11-29T16:52:38.638Z,37.83
2022-11-29T16:55:05.417Z,60.38
2022-11-29T16:57:32.233Z,56.03
2022-11-29T16:59:58.764Z,38.88
2022-11-29T17:02:29.448Z,31.40
2022-11-29T17:04:57.075Z,33.80
2022-11-29T17:07:28.815Z,36.47
2022-11-29T17:09:56.385Z,46.65
2022-11-29T17:12:22.964Z,39.17
2022-11-29T17:14:49.622Z,33.90
2022-11-29T17:17:18.235Z,33.97
2022-11-29T17:19:45.164Z,32.75
2022-11-29T17:22:12.180Z,35.47
2022-11-29T17:24:43.390Z,38.90
2022-11-29T17:27:13.036Z,32.67
2022-11-29T17:29:39.562Z,41.17
2022-11-29T17:32:06.161Z,33.92
2022-11-29T17:34:33.441Z,38.13
2022-11-29T17:36:59.972Z,38.63
2022-11-29T17:39:26.547Z,39.05
2022-11-29T17:41:53.065Z,43.57
2022-11-29T17:44:19.640Z,44.53
2022-11-29T17:46:46.247Z,40.40
2022-11-29T17:49:12.840Z,41.00
2022-11-29T17:51:51.753Z,43.40
2022-11-29T17:54:19.633Z,38.77
2022-11-29T17:56:46.160Z,45.05
2022-11-29T17:59:12.689Z,40.70
2022-11-29T18:01:39.414Z,36.05
2022-11-29T18:04:06.623Z,48.17
2022-11-29T18:06:38.329Z,74.37
2022-11-29T18:09:06.869Z,138.73
2022-11-29T18:11:49.043Z,107.25
2022-11-29T18:14:19.805Z,91.53
2022-11-29T18:16:46.593Z,79.97
2022-11-29T18:19:16.277Z,111.53
2022-11-29T18:21:43.333Z,83.55
2022-11-29T18:24:10.350Z,161.10
2022-11-29T18:26:38.133Z,139.07
2022-11-29T18:29:05.926Z,102.70
2022-11-29T18:31:35.039Z,92.57
2022-11-29T18:34:07.021Z,96.32
2022-11-29T18:36:36.244Z,48.28
2022-11-29T18:39:06.166Z,43.97
2022-11-29T18:41:33.340Z,85.10
2022-11-29T18:44:07.576Z,180.27
2022-11-29T18:46:37.261Z,144.95
2022-11-29T18:49:08.018Z,206.90
2022-11-29T18:51:35.976Z,188.38
2022-11-29T18:54:03.354Z,218.75
2022-11-29T18:56:32.739Z,219.60
2022-11-29T18:59:03.430Z,206.48
2022-11-29T19:01:33.357Z,195.40
2022-11-29T19:04:01.489Z,153.13
2022-11-29T19:06:37.128Z,152.02
2022-11-29T19:09:06.394Z,186.93
2022-11-29T19:11:34.543Z,263.20
2022-11-29T19:14:04.025Z,268.55
2022-11-29T19:16:33.454Z,183.98
2022-11-29T19:19:01.319Z,106.47
2022-11-29T19:21:29.924Z,89.10
2022-11-29T19:23:58.856Z,110.65
2022-11-29T19:26:27.507Z,154.40
2022-11-29T19:28:54.499Z,118.50
2022-11-29T19:31:25.082Z,89.15
2022-11-29T19:33:52.834Z,93.03
2022-11-29T19:36:30.539Z,113.78
2022-11-29T19:38:59.745Z,71.05
2022-11-29T19:41:28.960Z,75.38
2022-11-29T19:43:57.759Z,100.73
2022-11-29T19:46:27.210Z,95.03
2022-11-29T19:48:55.550Z,48.97
2022-11-29T19:51:23.327Z,39.30
2022-11-29T19:53:54.831Z,78.82
2022-11-29T19:56:22.452Z,104.30
2022-11-29T19:58:49.872Z,59.85
2022-11-29T20:01:24.046Z,44.07
2022-11-29T20:03:52.165Z,37.65
2022-11-29T20:06:19.362Z,27.75
2022-11-29T20:08:46.131Z,28.90
2022-11-29T20:11:16.764Z,32.45
2022-11-29T20:13:45.355Z,50.90
2022-11-29T20:16:14.805Z,65.03
2022-11-29T20:18:47.252Z,62.80
2022-11-29T20:21:22.450Z,68.78
2022-11-29T20:23:49.359Z,55.33
2022-11-29T20:26:20.792Z,83.57
2022-11-29T20:28:47.780Z,64.68
2022-11-29T20:31:17.731Z,35.05
2022-11-29T20:33:46.165Z,41.88
2022-11-29T20:36:48.038Z,37.60
2022-11-29T20:39:28.996Z,39.80
2022-11-29T20:42:12.724Z,42.65
2022-11-29T20:44:55.164Z,45.05
2022-11-29T20:47:24.741Z,38.88
2022-11-29T20:49:51.933Z,36.70
2022-11-29T20:52:35.109Z,33.50
2022-11-29T20:55:01.855Z,33.40
2022-11-29T20:57:28.642Z,38.50
2022-11-29T20:59:55.424Z,34.17
2022-11-29T21:02:23.149Z,31.58
2022-11-29T21:04:49.693Z,30.87
2022-11-29T21:07:16.606Z,35.45
2022-11-29T21:09:43.194Z,34.63
2022-11-29T21:12:10.363Z,30.92
2022-11-29T21:14:37.341Z,36.45
2022-11-29T21:17:04.360Z,29.17
2022-11-29T21:19:31.186Z,31.00
2022-11-29T21:22:35.623Z,28.98
2022-11-29T21:25:26.672Z,26.77
2022-11-29T21:27:55.012Z,28.83
2022-11-29T21:30:23.836Z,31.43
2022-11-29T21:32:51.254Z,28.10
2022-11-29T21:35:18.415Z,29.25
2022-11-29T21:37:45.732Z,27.30
2022-11-29T21:40:13.968Z,35.97
2022-11-29T21:42:40.658Z,29.38
2022-11-29T21:45:13.451Z,31.58
2022-11-29T21:47:42.400Z,31.23
2022-11-29T21:50:09.434Z,33.42
2022-11-29T21:52:36.016Z,33.88
2022-11-29T21:55:02.606Z,34.97
2022-11-29T21:57:29.147Z,29.65
2022-11-29T21:59:55.680Z,31.87
2022-11-29T22:02:22.510Z,33.13
2022-11-29T22:04:49.253Z,31.48
2022-11-29T22:07:16.176Z,32.03
2022-11-29T22:09:42.790Z,32.22
2022-11-29T22:12:31.837Z,35.27
2022-11-29T22:14:55.810Z,33.33
2022-11-29T22:17:22.307Z,32.45
2022-11-29T22:19:48.864Z,31.02
2022-11-29T22:22:15.431Z,31.20
2022-11-29T22:24:41.918Z,36.13
2022-11-29T22:27:08.476Z,38.33
2022-11-29T22:29:34.973Z,36.00
2022-11-29T22:32:02.339Z,31.40
2022-11-29T22:34:29.003Z,35.45
2022-11-29T22:36:56.049Z,42.43
2022-11-29T22:39:23.135Z,39.42
2022-11-29T22:41:54.301Z,37.60
2022-11-29T22:44:22.030Z,40.40
2022-11-29T22:46:48.734Z,42.35
2022-11-29T22:49:15.451Z,41.63
2022-11-29T22:51:42.173Z,51.75
2022-11-29T22:54:11.392Z,41.15
2022-11-29T22:56:40.361Z,44.47
2022-11-29T22:59:07.230Z,42.83
2022-11-29T23:01:35.627Z,46.13
2022-11-29T23:04:04.251Z,47.92
2022-11-29T23:06:37.502Z,42.60
2022-11-29T23:09:22.457Z,45.15
2022-11-29T23:11:53.932Z,54.05
2022-11-29T23:14:22.117Z,49.03
2022-11-29T23:16:48.863Z,51.90
2022-11-29T23:19:16.144Z,57.63
2022-11-29T23:21:45.572Z,52.78
2022-11-29T23:24:13.286Z,50.33
2022-11-29T23:26:42.485Z,55.03
2022-11-29T23:29:13.001Z,52.58
2022-11-29T23:31:40.011Z,55.97
2022-11-29T23:34:06.619Z,55.92
2022-11-29T23:36:33.676Z,51.10
2022-11-29T23:39:00.560Z,50.17
2022-11-29T23:41:27.147Z,56.90
2022-11-29T23:43:53.684Z,55.90
2022-11-29T23:46:23.355Z,52.30
2022-11-29T23:48:50.402Z,49.80
2022-11-29T23:51:18.226Z,49.70
2022-11-29T23:53:46.714Z,48.33
2022-11-29T23:56:16.174Z,46.40
2022-11-29T23:58:43.798Z,53.63
